createdAt,value
2018-09-10T00:01:08.231Z,3.25
2018-09-10T00:03:37.853Z,3.22
2018-09-10T00:06:07.278Z,3.20
2018-09-10T00:08:38.136Z,2.90
2018-09-10T00:11:08.642Z,3.30
2018-09-10T00:13:38.851Z,3.17
2018-09-10T00:16:08.453Z,3.20
2018-09-10T00:18:39.165Z,3.00
2018-09-10T00:21:09.022Z,2.97
2018-09-10T00:23:39.594Z,2.87
2018-09-10T00:26:09.219Z,3.72
2018-09-10T00:28:40.339Z,3.40
2018-09-10T00:31:10.259Z,3.35
2018-09-10T00:33:39.898Z,2.72
2018-09-10T00:36:09.740Z,3.08
2018-09-10T00:38:39.336Z,3.35
2018-09-10T00:41:08.954Z,3.95
2018-09-10T00:43:39.680Z,2.72
2018-09-10T00:46:09.398Z,2.60
2018-09-10T00:48:38.896Z,2.75
2018-09-10T00:51:09.096Z,2.78
2018-09-10T00:53:39.061Z,2.90
2018-09-10T00:56:08.856Z,2.70
2018-09-10T00:58:38.528Z,2.50
2018-09-10T01:01:08.750Z,2.60
2018-09-10T01:03:38.360Z,2.67
2018-09-10T01:06:08.168Z,2.80
2018-09-10T01:08:37.681Z,2.83
2018-09-10T01:11:07.419Z,2.78
2018-09-10T01:13:37.075Z,2.60
2018-09-10T01:16:06.540Z,3.08
2018-09-10T01:18:36.488Z,2.80
2018-09-10T01:21:05.871Z,2.50
2018-09-10T01:23:37.094Z,2.75
2018-09-10T01:26:06.418Z,3.05
2018-09-10T01:28:37.332Z,2.90
2018-09-10T01:31:07.009Z,3.80
2018-09-10T01:33:36.899Z,3.47
2018-09-10T01:36:07.008Z,4.10
2018-09-10T01:38:37.347Z,4.15
2018-09-10T01:41:07.120Z,3.62
2018-09-10T01:43:37.088Z,7.85
2018-09-10T01:46:07.559Z,5.25
2018-09-10T01:48:38.416Z,3.87
2018-09-10T01:51:07.848Z,3.30
2018-09-10T01:53:38.919Z,3.30
2018-09-10T01:56:08.287Z,5.55
2018-09-10T01:58:37.693Z,5.53
2018-09-10T02:01:07.054Z,3.20
2018-09-10T02:03:36.719Z,3.05
2018-09-10T02:06:06.597Z,3.35
2018-09-10T02:08:37.098Z,3.80
2018-09-10T02:11:07.218Z,4.72
2018-09-10T02:13:36.841Z,3.62
2018-09-10T02:16:06.718Z,4.32
2018-09-10T02:18:36.359Z,3.60
2018-09-10T02:21:06.018Z,4.40
2018-09-10T02:23:36.631Z,4.50
2018-09-10T02:26:06.544Z,3.08
2018-09-10T02:28:37.150Z,3.70
2018-09-10T02:31:06.814Z,3.53
2018-09-10T02:33:36.496Z,3.03
2018-09-10T02:36:07.200Z,3.37
2018-09-10T02:38:36.559Z,3.50
2018-09-10T02:41:07.771Z,3.28
2018-09-10T02:43:37.425Z,3.72
2018-09-10T02:46:07.037Z,3.58
2018-09-10T02:48:36.516Z,4.37
2018-09-10T02:51:07.797Z,3.20
2018-09-10T02:53:38.496Z,2.90
2018-09-10T02:56:09.028Z,3.50
2018-09-10T02:58:38.598Z,3.47
2018-09-10T03:01:09.646Z,3.45
2018-09-10T03:03:39.942Z,3.30
2018-09-10T03:06:09.635Z,4.00
2018-09-10T03:08:39.076Z,3.10
2018-09-10T03:11:09.381Z,3.55
2018-09-10T03:13:40.092Z,3.00
2018-09-10T03:16:09.887Z,2.85
2018-09-10T03:18:41.298Z,3.08
2018-09-10T03:21:10.884Z,2.92
2018-09-10T03:23:40.622Z,2.78
2018-09-10T03:26:09.842Z,3.10
2018-09-10T03:28:39.231Z,2.50
2018-09-10T03:31:08.973Z,3.92
2018-09-10T03:33:38.429Z,4.35
2018-09-10T03:36:08.136Z,4.90
2018-09-10T03:38:38.605Z,3.83
2018-09-10T03:41:09.356Z,3.20
2018-09-10T03:43:38.837Z,3.10
2018-09-10T03:46:09.127Z,4.50
2018-09-10T03:48:38.864Z,3.60
2018-09-10T03:51:09.163Z,3.60
2018-09-10T03:53:39.640Z,2.60
2018-09-10T03:56:14.189Z,2.78
2018-09-10T03:58:43.997Z,2.58
2018-09-10T04:01:13.627Z,3.10
2018-09-10T04:03:43.612Z,2.50
2018-09-10T04:06:13.230Z,3.10
2018-09-10T04:08:42.803Z,2.78
2018-09-10T04:11:12.400Z,2.80
2018-09-10T04:13:42.203Z,2.70
2018-09-10T04:16:12.138Z,2.65
2018-09-10T04:18:41.836Z,2.90
2018-09-10T04:21:11.714Z,2.78
2018-09-10T04:23:41.579Z,3.00
2018-09-10T04:26:11.362Z,2.75
2018-09-10T04:28:41.776Z,2.70
2018-09-10T04:31:11.449Z,2.80
2018-09-10T04:33:41.142Z,2.65
2018-09-10T04:36:10.621Z,2.90
2018-09-10T04:38:40.067Z,2.90
2018-09-10T04:41:09.805Z,2.92
2018-09-10T04:43:39.347Z,2.70
2018-09-10T04:46:10.201Z,2.97
2018-09-10T04:48:39.831Z,2.72
2018-09-10T04:51:09.364Z,2.80
2018-09-10T04:53:39.052Z,2.67
2018-09-10T04:56:09.548Z,2.75
2018-09-10T04:58:39.064Z,2.83
2018-09-10T05:01:08.717Z,2.97
2018-09-10T05:03:39.305Z,3.10
2018-09-10T05:06:09.312Z,3.33
2018-09-10T05:08:38.995Z,3.10
2018-09-10T05:11:09.884Z,2.83
2018-09-10T05:13:39.853Z,4.00
2018-09-10T05:16:09.693Z,3.60
2018-09-10T05:18:39.606Z,3.30
2018-09-10T05:21:09.156Z,3.30
2018-09-10T05:23:38.886Z,3.90
2018-09-10T05:26:09.563Z,3.72
2018-09-10T05:28:39.159Z,5.35
2018-09-10T05:31:09.076Z,5.10
2018-09-10T05:33:39.107Z,4.97
2018-09-10T05:36:08.723Z,4.20
2018-09-10T05:38:39.294Z,5.12
2018-09-10T05:41:10.798Z,4.47
2018-09-10T05:43:41.680Z,5.55
2018-09-10T05:46:11.547Z,6.28
2018-09-10T05:48:41.030Z,5.90
2018-09-10T05:51:11.381Z,5.97
2018-09-10T05:53:40.929Z,5.10
2018-09-10T05:56:10.284Z,5.75
2018-09-10T05:58:40.530Z,5.22
2018-09-10T06:01:10.631Z,5.18
2018-09-10T06:03:41.134Z,6.05
2018-09-10T06:06:10.616Z,7.47
2018-09-10T06:08:40.289Z,7.03
2018-09-10T06:11:10.058Z,6.18
2018-09-10T06:13:40.961Z,6.97
2018-09-10T06:16:10.852Z,6.15
2018-09-10T06:18:40.383Z,7.53
2018-09-10T06:21:10.230Z,8.05
2018-09-10T06:23:39.800Z,7.30
2018-09-10T06:26:10.093Z,6.90
2018-09-10T06:28:40.412Z,7.40
2018-09-10T06:31:11.114Z,7.15
2018-09-10T06:33:41.199Z,7.30
2018-09-10T06:36:10.892Z,8.55
2018-09-10T06:38:40.340Z,8.13
2018-09-10T06:41:10.066Z,7.93
2018-09-10T06:43:39.778Z,8.30
2018-09-10T06:46:09.466Z,7.40
2018-09-10T06:48:39.259Z,8.73
2018-09-10T06:51:09.636Z,7.62
2018-09-10T06:53:38.858Z,8.95
2018-09-10T06:56:08.206Z,8.10
2018-09-10T06:58:38.458Z,8.52
2018-09-10T07:01:08.128Z,8.15
2018-09-10T07:03:40.391Z,7.70
2018-09-10T07:06:10.769Z,7.45
2018-09-10T07:08:40.138Z,8.75
2018-09-10T07:11:09.725Z,8.57
2018-09-10T07:13:41.089Z,8.55
2018-09-10T07:16:10.696Z,8.57
2018-09-10T07:18:40.379Z,8.82
2018-09-10T07:21:10.331Z,8.43
2018-09-10T07:23:39.997Z,8.38
2018-09-10T07:26:10.350Z,8.73
2018-09-10T07:28:41.341Z,8.18
2018-09-10T07:31:10.796Z,9.35
2018-09-10T07:33:40.428Z,7.70
2018-09-10T07:36:10.066Z,7.87
2018-09-10T07:38:39.745Z,8.70
2018-09-10T07:41:09.280Z,8.25
2018-09-10T07:43:39.374Z,8.13
2018-09-10T07:46:09.941Z,8.27
2018-09-10T07:48:39.505Z,7.78
2018-09-10T07:51:09.561Z,8.32
2018-09-10T07:53:39.154Z,7.62
2018-09-10T07:56:09.630Z,6.80
2018-09-10T07:58:40.244Z,7.37
2018-09-10T08:01:11.443Z,7.43
2018-09-10T08:03:41.205Z,7.10
2018-09-10T08:06:11.223Z,6.93
2018-09-10T08:08:41.860Z,6.68
2018-09-10T08:11:11.508Z,6.40
2018-09-10T08:13:41.553Z,6.40
2018-09-10T08:16:11.249Z,5.82
2018-09-10T08:18:40.869Z,6.57
2018-09-10T08:21:10.522Z,6.78
2018-09-10T08:23:40.191Z,6.20
2018-09-10T08:26:10.032Z,5.87
2018-09-10T08:28:39.948Z,5.75
2018-09-10T08:31:09.602Z,6.28
2018-09-10T08:33:39.003Z,5.43
2018-09-10T08:36:08.719Z,5.90
2018-09-10T08:38:38.069Z,5.32
2018-09-10T08:41:08.120Z,5.20
2018-09-10T08:43:37.776Z,5.37
2018-09-10T08:46:08.206Z,5.32
2018-09-10T08:48:39.128Z,4.75
2018-09-10T08:51:08.655Z,5.25
2018-09-10T08:53:38.098Z,5.50
2018-09-10T08:56:08.347Z,5.15
2018-09-10T08:58:37.870Z,5.03
2018-09-10T09:01:07.749Z,5.00
2018-09-10T09:03:37.401Z,5.10
2018-09-10T09:06:06.931Z,4.75
2018-09-10T09:08:36.589Z,4.60
2018-09-10T09:11:07.191Z,4.45
2018-09-10T09:13:36.806Z,4.78
2018-09-10T09:16:06.781Z,4.75
2018-09-10T09:18:36.420Z,4.00
2018-09-10T09:21:06.161Z,4.70
2018-09-10T09:23:36.035Z,4.72
2018-09-10T09:26:05.668Z,5.00
2018-09-10T09:28:35.028Z,4.20
2018-09-10T09:31:04.869Z,4.22
2018-09-10T09:33:35.502Z,4.30
2018-09-10T09:36:05.384Z,4.62
2018-09-10T09:38:54.684Z,5.10
2018-09-10T09:44:30.224Z,4.93
2018-09-10T09:46:59.772Z,5.22
2018-09-10T09:49:29.427Z,4.90
2018-09-10T09:52:00.114Z,5.05
2018-09-10T09:54:29.898Z,4.47
2018-09-10T09:57:00.213Z,5.35
2018-09-10T09:59:29.889Z,5.20
2018-09-10T10:02:00.811Z,5.20
2018-09-10T10:04:30.334Z,5.50
2018-09-10T10:07:01.508Z,5.28
2018-09-10T10:09:31.254Z,5.28
2018-09-10T10:12:00.916Z,5.45
2018-09-10T10:14:30.567Z,5.35
2018-09-10T10:17:00.847Z,5.70
2018-09-10T10:19:30.460Z,5.72
2018-09-10T10:22:00.003Z,5.80
2018-09-10T10:24:29.879Z,6.30
2018-09-10T10:26:59.639Z,6.20
2018-09-10T10:29:29.437Z,5.90
2018-09-10T10:31:58.986Z,6.28
2018-09-10T10:34:29.489Z,6.18
2018-09-10T10:36:59.306Z,6.20
2018-09-10T10:39:30.240Z,5.93
2018-09-10T10:41:59.898Z,6.90
2018-09-10T10:44:29.704Z,6.43
2018-09-10T10:46:59.823Z,6.57
2018-09-10T10:49:30.521Z,6.70
2018-09-10T10:52:00.492Z,6.35
2018-09-10T10:54:30.263Z,6.80
2018-09-10T10:57:00.460Z,6.57
2018-09-10T10:59:30.040Z,7.20
2018-09-10T11:01:59.714Z,7.15
2018-09-10T11:04:29.273Z,7.85
2018-09-10T11:07:00.043Z,8.00
2018-09-10T11:09:30.576Z,8.27
2018-09-10T11:12:01.022Z,8.10
2018-09-10T11:14:31.060Z,7.05
2018-09-10T11:17:01.181Z,8.00
2018-09-10T11:19:30.759Z,8.18
2018-09-10T11:22:01.438Z,7.37
2018-09-10T11:24:31.778Z,7.25
2018-09-10T11:27:02.200Z,6.78
2018-09-10T11:29:32.225Z,6.75
2018-09-10T11:32:02.092Z,5.93
2018-09-10T11:34:31.934Z,5.82
2018-09-10T11:37:02.665Z,5.75
2018-09-10T11:39:34.122Z,6.03
2018-09-10T11:42:03.773Z,5.87
2018-09-10T11:44:34.421Z,6.12
2018-09-10T11:47:04.697Z,6.00
2018-09-10T11:49:34.414Z,5.90
2018-09-10T11:52:03.958Z,6.50
2018-09-10T11:54:33.749Z,5.95
2018-09-10T11:57:05.028Z,5.90
2018-09-10T11:59:34.815Z,6.32
2018-09-10T12:02:04.362Z,6.43
2018-09-10T12:04:35.687Z,6.12
2018-09-10T12:07:05.628Z,6.60
2018-09-10T12:09:35.399Z,6.65
2018-09-10T12:12:05.001Z,6.35
2018-09-10T12:14:36.412Z,7.22
2018-09-10T12:17:05.882Z,7.33
2018-09-10T12:19:35.840Z,6.78
2018-09-10T12:22:05.493Z,7.07
2018-09-10T12:24:35.541Z,7.10
2018-09-10T12:27:05.286Z,6.33
2018-09-10T12:29:35.097Z,6.50
2018-09-10T12:32:04.721Z,7.10
2018-09-10T12:34:35.240Z,6.53
2018-09-10T12:37:04.865Z,6.78
2018-09-10T12:39:34.974Z,6.80
2018-09-10T12:42:04.497Z,7.30
2018-09-10T12:44:35.200Z,6.90
2018-09-10T12:47:04.763Z,8.40
2018-09-10T12:49:34.704Z,7.43
2018-09-10T12:52:04.360Z,7.93
2018-09-10T12:54:34.358Z,9.30
2018-09-10T12:57:04.130Z,9.07
2018-09-10T12:59:34.737Z,9.02
2018-09-10T13:02:06.425Z,9.48
2018-09-10T13:04:35.781Z,9.23
2018-09-10T13:07:05.372Z,8.55
2018-09-10T13:09:35.114Z,10.38
2018-09-10T13:12:05.844Z,9.70
2018-09-10T13:14:35.441Z,9.85
2018-09-10T13:17:04.961Z,10.30
2018-09-10T13:19:34.513Z,10.43
2018-09-10T13:22:04.164Z,11.38
2018-09-10T13:24:33.920Z,10.60
2018-09-10T13:27:03.869Z,11.10
2018-09-10T13:29:33.658Z,10.20
2018-09-10T13:32:03.446Z,10.65
2018-09-10T13:34:34.116Z,11.00
2018-09-10T13:37:05.158Z,11.27
2018-09-10T13:39:35.374Z,11.07
2018-09-10T13:42:05.296Z,11.05
2018-09-10T13:44:35.929Z,11.38
2018-09-10T13:47:05.961Z,11.32
2018-09-10T13:49:35.460Z,11.20
2018-09-10T13:52:05.452Z,13.30
2018-09-10T13:54:35.294Z,11.45
2018-09-10T13:57:05.596Z,13.17
2018-09-10T13:59:36.081Z,11.38
2018-09-10T14:02:06.317Z,11.67
2018-09-10T14:04:36.051Z,12.02
2018-09-10T14:07:05.676Z,11.77
2018-09-10T14:09:35.330Z,10.93
2018-09-10T14:12:05.010Z,11.25
2018-09-10T14:14:34.868Z,9.90
2018-09-10T14:17:05.113Z,11.40
2018-09-10T14:19:35.266Z,10.32
2018-09-10T14:22:04.842Z,13.05
2018-09-10T14:24:35.386Z,11.90
2018-09-10T14:27:06.912Z,10.43
2018-09-10T14:29:36.750Z,14.38
2018-09-10T14:32:06.337Z,12.02
2018-09-10T14:34:35.947Z,11.05
2018-09-10T14:37:07.484Z,11.30
2018-09-10T14:39:37.252Z,12.03
2018-09-10T14:42:07.679Z,12.45
2018-09-10T14:44:37.182Z,11.90
2018-09-10T14:47:23.843Z,12.45
2018-09-10T14:49:55.174Z,12.65
2018-09-10T14:52:25.838Z,12.60
2018-09-10T14:55:03.473Z,13.35
2018-09-10T14:57:34.694Z,12.73
2018-09-10T15:00:04.781Z,14.07
2018-09-10T15:02:36.512Z,12.10
2018-09-10T15:05:18.522Z,13.85
2018-09-10T15:07:48.568Z,12.50
2018-09-10T15:10:20.004Z,11.80
2018-09-10T15:12:50.865Z,12.85
2018-09-10T15:15:21.674Z,12.27
2018-09-10T15:17:53.358Z,12.32
2018-09-10T15:20:23.579Z,11.50
2018-09-10T15:22:59.485Z,11.98
2018-09-10T15:25:30.880Z,11.82
2018-09-10T15:28:01.637Z,11.98
2018-09-10T15:30:31.869Z,11.20
2018-09-10T15:33:13.736Z,13.40
2018-09-10T15:35:44.409Z,11.55
2018-09-10T15:38:16.014Z,12.35
2018-09-10T15:40:51.461Z,11.15
2018-09-10T15:43:25.968Z,12.88
2018-09-10T15:45:57.419Z,11.63
2018-09-10T15:48:29.197Z,11.55
2018-09-10T15:51:01.810Z,10.73
2018-09-10T15:53:38.707Z,11.25
2018-09-10T15:58:46.205Z,11.70
2018-09-10T16:01:17.866Z,11.32
2018-09-10T16:03:48.741Z,11.00
2018-09-10T16:06:23.636Z,10.35
2018-09-10T16:08:53.614Z,10.02
2018-09-10T16:11:23.966Z,11.90
2018-09-10T16:13:54.152Z,12.20
2018-09-10T16:16:25.516Z,10.60
2018-09-10T16:19:26.649Z,10.80
2018-09-10T16:21:59.663Z,10.98
2018-09-10T16:24:37.177Z,11.02
2018-09-10T16:27:08.623Z,10.05
2018-09-10T16:29:38.457Z,10.95
2018-09-10T16:32:11.690Z,9.77
2018-09-10T16:34:47.969Z,11.85
2018-09-10T16:37:19.866Z,10.38
2018-09-10T16:39:52.366Z,17.52
2018-09-10T16:42:26.086Z,10.63
2018-09-10T16:45:00.027Z,10.05
2018-09-10T16:47:33.195Z,8.55
2018-09-10T16:50:04.836Z,8.88
2018-09-10T16:52:36.760Z,7.40
2018-09-10T16:55:08.158Z,6.40
2018-09-10T16:57:38.292Z,6.28
2018-09-10T17:00:09.221Z,6.90
2018-09-10T17:02:49.261Z,6.60
2018-09-10T17:05:21.616Z,7.22
2018-09-10T17:07:57.357Z,7.10
2018-09-10T17:10:28.305Z,7.70
2018-09-10T17:12:58.799Z,7.43
2018-09-10T17:15:28.533Z,8.50
2018-09-10T17:17:59.103Z,7.10
2018-09-10T17:20:28.548Z,7.80
2018-09-10T17:22:58.699Z,7.15
2018-09-10T17:25:28.339Z,6.35
2018-09-10T17:27:58.100Z,6.25
2018-09-10T17:30:27.920Z,6.32
2018-09-10T17:32:57.901Z,6.57
2018-09-10T17:35:27.701Z,7.50
2018-09-10T17:37:57.557Z,6.28
2018-09-10T17:40:29.813Z,6.87
2018-09-10T17:43:00.344Z,7.70
2018-09-10T17:45:29.761Z,7.75
2018-09-10T17:47:59.373Z,7.62
2018-09-10T17:50:29.190Z,7.53
2018-09-10T17:52:59.110Z,6.97
2018-09-10T17:55:28.869Z,7.55
2018-09-10T17:57:58.549Z,6.80
2018-09-10T18:00:28.521Z,7.07
2018-09-10T18:02:58.351Z,6.60
2018-09-10T18:05:28.116Z,7.22
2018-09-10T18:07:57.675Z,8.10
2018-09-10T18:10:28.051Z,6.72
2018-09-10T18:12:59.530Z,6.93
2018-09-10T18:15:29.297Z,8.32
2018-09-10T18:17:59.231Z,8.20
2018-09-10T18:20:30.367Z,8.70
2018-09-10T18:23:00.622Z,8.88
2018-09-10T18:25:30.368Z,8.25
2018-09-10T18:28:00.382Z,9.02
2018-09-10T18:30:30.695Z,8.05
2018-09-10T18:33:00.268Z,8.95
2018-09-10T18:35:30.616Z,9.48
2018-09-10T18:38:00.291Z,9.82
2018-09-10T18:40:29.789Z,10.40
2018-09-10T18:42:59.629Z,10.65
2018-09-10T18:45:29.068Z,10.70
2018-09-10T18:47:59.692Z,10.50
2018-09-10T18:50:36.856Z,10.13
2018-09-10T18:53:06.483Z,10.10
2018-09-10T18:55:37.159Z,11.48
2018-09-10T18:58:07.146Z,9.75
2018-09-10T19:00:36.618Z,10.35
2018-09-10T19:03:12.578Z,10.55
2018-09-10T19:05:44.286Z,9.93
2018-09-10T19:08:15.061Z,9.52
2018-09-10T19:10:44.735Z,9.82
2018-09-10T19:13:14.514Z,9.68
2018-09-10T19:15:45.557Z,9.75
2018-09-10T19:18:15.999Z,9.02
2018-09-10T19:20:46.447Z,8.80
2018-09-10T19:23:16.882Z,9.60
2018-09-10T19:25:47.388Z,9.57
2018-09-10T19:28:16.873Z,8.80
2018-09-10T19:30:46.488Z,6.93
2018-09-10T19:33:16.206Z,8.82
2018-09-10T19:35:46.719Z,7.65
2018-09-10T19:38:16.370Z,7.65
2018-09-10T19:40:45.872Z,7.32
2018-09-10T19:43:15.372Z,7.75
2018-09-10T19:45:47.731Z,8.65
2018-09-10T19:48:18.228Z,7.03
2018-09-10T19:50:48.563Z,7.57
2018-09-10T19:53:18.442Z,7.45
2018-09-10T19:55:48.078Z,7.30
2018-09-10T19:58:18.416Z,7.35
2018-09-10T20:00:47.984Z,7.18
2018-09-10T20:03:17.584Z,7.15
2018-09-10T20:05:48.875Z,7.37
2018-09-10T20:08:25.416Z,7.60
2018-09-10T20:10:55.005Z,8.13
2018-09-10T20:13:24.426Z,7.62
2018-09-10T20:15:53.923Z,7.75
2018-09-10T20:18:23.304Z,7.60
2018-09-10T20:20:53.079Z,7.93
2018-09-10T20:23:28.319Z,8.57
2018-09-10T20:25:58.369Z,7.03
2018-09-10T20:28:28.454Z,7.55
2018-09-10T20:30:59.952Z,7.07
2018-09-10T20:33:29.962Z,6.60
2018-09-10T20:36:07.561Z,7.87
2018-09-10T20:38:37.466Z,7.20
2018-09-10T20:41:07.678Z,7.70
2018-09-10T20:43:38.098Z,7.07
2018-09-10T20:46:09.085Z,7.18
2018-09-10T20:48:40.223Z,6.53
2018-09-10T20:51:13.248Z,6.95
2018-09-10T20:53:45.274Z,6.85
2018-09-10T20:56:15.107Z,7.22
2018-09-10T20:58:45.196Z,7.20
2018-09-10T21:01:15.414Z,6.80
2018-09-10T21:03:45.162Z,6.80
2018-09-10T21:06:14.741Z,6.03
2018-09-10T21:08:44.662Z,6.00
2018-09-10T21:11:14.828Z,6.50
2018-09-10T21:13:44.202Z,6.68
2018-09-10T21:16:14.438Z,6.87
2018-09-10T21:18:43.946Z,6.72
2018-09-10T21:21:14.366Z,6.60
2018-09-10T21:23:43.945Z,6.65
2018-09-10T21:26:13.728Z,7.12
2018-09-10T21:28:43.629Z,6.97
2018-09-10T21:31:13.224Z,6.43
2018-09-10T21:33:42.756Z,7.07
2018-09-10T21:36:12.443Z,6.55
2018-09-10T21:38:41.918Z,6.95
2018-09-10T21:41:11.962Z,6.43
2018-09-10T21:43:41.303Z,6.85
2018-09-10T21:46:10.976Z,6.53
2018-09-10T21:48:40.326Z,7.10
2018-09-10T21:51:09.920Z,6.85
2018-09-10T21:53:39.713Z,7.07
2018-09-10T21:56:09.536Z,7.28
2018-09-10T21:58:39.168Z,7.07
2018-09-10T22:01:09.707Z,7.82
2018-09-10T22:03:39.332Z,7.95
2018-09-10T22:06:09.406Z,7.55
2018-09-10T22:08:39.237Z,7.20
2018-09-10T22:11:12.344Z,7.30
2018-09-10T22:13:42.465Z,7.75
2018-09-10T22:16:12.982Z,7.25
2018-09-10T22:18:43.244Z,6.93
2018-09-10T22:21:14.142Z,7.30
2018-09-10T22:23:44.930Z,8.85
2018-09-10T22:26:15.799Z,8.35
2018-09-10T22:28:51.261Z,8.15
2018-09-10T22:31:22.640Z,6.68
2018-09-10T22:33:52.912Z,6.28
2018-09-10T22:36:24.031Z,5.57
2018-09-10T22:38:54.448Z,5.43
2018-09-10T22:41:24.839Z,5.10
2018-09-10T22:43:54.724Z,5.65
2018-09-10T22:46:24.937Z,4.80
2018-09-10T22:48:55.471Z,3.78
2018-09-10T22:51:28.959Z,13.30
2018-09-10T22:53:59.487Z,4.00
2018-09-10T22:56:33.429Z,3.67
2018-09-10T22:59:03.629Z,3.60
2018-09-10T23:01:33.673Z,3.60
2018-09-10T23:04:04.001Z,3.70
2018-09-10T23:06:34.478Z,3.30
2018-09-10T23:09:05.116Z,3.40
2018-09-10T23:11:38.726Z,4.00
2018-09-10T23:14:12.067Z,3.40
2018-09-10T23:16:42.316Z,3.67
2018-09-10T23:22:14.628Z,4.23
2018-09-10T23:24:45.475Z,3.47
2018-09-10T23:27:15.311Z,4.25
2018-09-10T23:29:44.773Z,3.58
2018-09-10T23:32:14.535Z,3.35
2018-09-10T23:34:44.955Z,3.37
2018-09-10T23:37:15.626Z,3.40
2018-09-10T23:39:45.238Z,3.42
2018-09-10T23:42:15.178Z,3.40
2018-09-10T23:44:45.817Z,3.65
2018-09-10T23:47:15.552Z,3.50
2018-09-10T23:49:46.046Z,3.65
2018-09-10T23:52:15.584Z,3.75
2018-09-10T23:54:46.064Z,3.72
2018-09-10T23:57:15.816Z,3.30
2018-09-10T23:59:45.533Z,3.90
